sensor_id;sensor_type;location;lat;lon;timestamp;temperature;humidity
14517;DHT22;7344;50.864;4.362;2023-12-14T00:01:32;10.40;99.90
14517;DHT22;7344;50.864;4.362;2023-12-14T00:03:57;10.30;99.90
14517;DHT22;7344;50.864;4.362;2023-12-14T00:06:23;10.30;99.90
14517;DHT22;7344;50.864;4.362;2023-12-14T00:08:48;10.30;99.90
14517;DHT22;7344;50.864;4.362;2023-12-14T00:11:14;10.30;99.90
14517;DHT22;7344;50.864;4.362;2023-12-14T00:13:39;10.40;99.90
14517;DHT22;7344;50.864;4.362;2023-12-14T00:16:06;10.40;99.90
14517;DHT22;7344;50.864;4.362;2023-12-14T00:18:31;10.50;99.90
14517;DHT22;7344;50.864;4.362;2023-12-14T00:20:57;10.60;99.90
14517;DHT22;7344;50.864;4.362;2023-12-14T00:23:23;10.60;99.90
14517;DHT22;7344;50.864;4.362;2023-12-14T00:25:49;10.50;99.90
14517;DHT22;7344;50.864;4.362;2023-12-14T00:28:14;10.40;99.90
14517;DHT22;7344;50.864;4.362;2023-12-14T00:30:40;10.50;99.90
14517;DHT22;7344;50.864;4.362;2023-12-14T00:33:05;10.50;99.90
14517;DHT22;7344;50.864;4.362;2023-12-14T00:35:31;10.50;99.90
14517;DHT22;7344;50.864;4.362;2023-12-14T00:37:57;10.50;99.90
14517;DHT22;7344;50.864;4.362;2023-12-14T00:40:22;10.50;99.90
14517;DHT22;7344;50.864;4.362;2023-12-14T00:42:48;10.50;99.90
14517;DHT22;7344;50.864;4.362;2023-12-14T00:45:13;10.50;99.90
14517;DHT22;7344;50.864;4.362;2023-12-14T00:47:39;10.50;99.90
14517;DHT22;7344;50.864;4.362;2023-12-14T00:50:05;10.40;99.90
14517;DHT22;7344;50.864;4.362;2023-12-14T00:52:31;10.50;99.90
14517;DHT22;7344;50.864;4.362;2023-12-14T00:54:56;10.50;99.90
14517;DHT22;7344;50.864;4.362;2023-12-14T00:57:22;10.50;99.90
14517;DHT22;7344;50.864;4.362;2023-12-14T00:59:47;10.50;99.90
14517;DHT22;7344;50.864;4.362;2023-12-14T01:02:13;10.60;99.90
14517;DHT22;7344;50.864;4.362;2023-12-14T01:04:38;10.50;99.90
14517;DHT22;7344;50.864;4.362;2023-12-14T01:07:04;10.50;99.90
14517;DHT22;7344;50.864;4.362;2023-12-14T01:09:30;10.60;99.90
14517;DHT22;7344;50.864;4.362;2023-12-14T01:11:55;10.60;99.90
14517;DHT22;7344;50.864;4.362;2023-12-14T01:14:21;10.60;99.90
14517;DHT22;7344;50.864;4.362;2023-12-14T01:16:47;10.60;99.90
14517;DHT22;7344;50.864;4.362;2023-12-14T01:19:12;10.50;99.90
14517;DHT22;7344;50.864;4.362;2023-12-14T01:21:38;10.50;99.90
14517;DHT22;7344;50.864;4.362;2023-12-14T01:24:04;10.50;99.90
14517;DHT22;7344;50.864;4.362;2023-12-14T01:26:29;10.40;99.90
14517;DHT22;7344;50.864;4.362;2023-12-14T01:28:55;10.30;99.90
14517;DHT22;7344;50.864;4.362;2023-12-14T01:31:20;10.30;99.90
14517;DHT22;7344;50.864;4.362;2023-12-14T01:33:49;10.30;99.90
14517;DHT22;7344;50.864;4.362;2023-12-14T01:36:24;10.30;99.90
14517;DHT22;7344;50.864;4.362;2023-12-14T01:38:50;10.30;99.90
14517;DHT22;7344;50.864;4.362;2023-12-14T01:41:16;10.30;99.90
14517;DHT22;7344;50.864;4.362;2023-12-14T01:43:41;10.30;99.90
14517;DHT22;7344;50.864;4.362;2023-12-14T01:46:07;10.30;99.90
14517;DHT22;7344;50.864;4.362;2023-12-14T01:48:33;10.30;99.90
14517;DHT22;7344;50.864;4.362;2023-12-14T01:50:58;10.30;99.90
14517;DHT22;7344;50.864;4.362;2023-12-14T01:53:24;10.20;99.90
14517;DHT22;7344;50.864;4.362;2023-12-14T01:55:50;10.30;99.90
14517;DHT22;7344;50.864;4.362;2023-12-14T01:58:16;10.30;99.90
14517;DHT22;7344;50.864;4.362;2023-12-14T02:01:05;10.30;99.90
14517;DHT22;7344;50.864;4.362;2023-12-14T02:03:32;10.30;99.90
14517;DHT22;7344;50.864;4.362;2023-12-14T02:05:58;10.30;99.90
14517;DHT22;7344;50.864;4.362;2023-12-14T02:08:24;10.20;99.90
14517;DHT22;7344;50.864;4.362;2023-12-14T02:10:50;10.00;99.90
14517;DHT22;7344;50.864;4.362;2023-12-14T02:13:15;10.00;99.90
14517;DHT22;7344;50.864;4.362;2023-12-14T02:15:41;9.90;99.90
14517;DHT22;7344;50.864;4.362;2023-12-14T02:18:07;9.70;99.90
14517;DHT22;7344;50.864;4.362;2023-12-14T02:20:33;9.70;99.90
14517;DHT22;7344;50.864;4.362;2023-12-14T02:22:58;9.60;99.90
14517;DHT22;7344;50.864;4.362;2023-12-14T02:25:24;9.50;99.90
14517;DHT22;7344;50.864;4.362;2023-12-14T02:27:51;9.60;99.90
14517;DHT22;7344;50.864;4.362;2023-12-14T02:30:17;9.60;99.90
14517;DHT22;7344;50.864;4.362;2023-12-14T02:32:43;9.60;99.90
14517;DHT22;7344;50.864;4.362;2023-12-14T02:35:09;9.70;99.90
14517;DHT22;7344;50.864;4.362;2023-12-14T02:37:35;9.80;99.90
14517;DHT22;7344;50.864;4.362;2023-12-14T02:40:06;9.80;99.90
14517;DHT22;7344;50.864;4.362;2023-12-14T02:42:32;9.80;99.90
14517;DHT22;7344;50.864;4.362;2023-12-14T02:44:58;9.70;99.90
14517;DHT22;7344;50.864;4.362;2023-12-14T02:47:23;9.60;99.90
14517;DHT22;7344;50.864;4.362;2023-12-14T02:49:49;9.40;99.90
14517;DHT22;7344;50.864;4.362;2023-12-14T02:52:14;9.50;99.90
14517;DHT22;7344;50.864;4.362;2023-12-14T02:54:40;9.50;99.90
14517;DHT22;7344;50.864;4.362;2023-12-14T02:57:06;9.50;99.90
14517;DHT22;7344;50.864;4.362;2023-12-14T02:59:32;9.60;99.90
14517;DHT22;7344;50.864;4.362;2023-12-14T03:01:57;9.60;99.90
14517;DHT22;7344;50.864;4.362;2023-12-14T03:04:23;9.50;99.90
14517;DHT22;7344;50.864;4.362;2023-12-14T03:06:49;9.40;99.90
14517;DHT22;7344;50.864;4.362;2023-12-14T03:09:14;9.30;99.90
14517;DHT22;7344;50.864;4.362;2023-12-14T03:11:40;9.30;99.90
14517;DHT22;7344;50.864;4.362;2023-12-14T03:14:05;9.20;99.90
14517;DHT22;7344;50.864;4.362;2023-12-14T03:16:31;9.20;99.90
14517;DHT22;7344;50.864;4.362;2023-12-14T03:18:57;9.00;99.90
14517;DHT22;7344;50.864;4.362;2023-12-14T03:21:23;9.10;99.90
14517;DHT22;7344;50.864;4.362;2023-12-14T03:23:49;9.00;99.90
14517;DHT22;7344;50.864;4.362;2023-12-14T03:26:15;8.90;99.90
14517;DHT22;7344;50.864;4.362;2023-12-14T03:28:40;8.90;99.90
14517;DHT22;7344;50.864;4.362;2023-12-14T03:31:06;8.90;99.90
14517;DHT22;7344;50.864;4.362;2023-12-14T03:33:32;9.00;99.90
14517;DHT22;7344;50.864;4.362;2023-12-14T03:35:57;9.10;99.90
14517;DHT22;7344;50.864;4.362;2023-12-14T03:38:23;9.10;99.90
14517;DHT22;7344;50.864;4.362;2023-12-14T03:40:49;9.00;99.90
14517;DHT22;7344;50.864;4.362;2023-12-14T03:43:14;9.00;99.90
14517;DHT22;7344;50.864;4.362;2023-12-14T03:45:40;8.80;99.90
14517;DHT22;7344;50.864;4.362;2023-12-14T03:48:05;8.70;99.90
14517;DHT22;7344;50.864;4.362;2023-12-14T03:50:31;8.70;99.90
14517;DHT22;7344;50.864;4.362;2023-12-14T03:52:58;8.70;99.90
14517;DHT22;7344;50.864;4.362;2023-12-14T03:55:23;8.70;99.90
14517;DHT22;7344;50.864;4.362;2023-12-14T03:57:49;8.80;99.90
14517;DHT22;7344;50.864;4.362;2023-12-14T04:00:15;8.70;99.90
14517;DHT22;7344;50.864;4.362;2023-12-14T04:02:41;8.70;99.90
14517;DHT22;7344;50.864;4.362;2023-12-14T04:05:07;8.60;99.90
14517;DHT22;7344;50.864;4.362;2023-12-14T04:07:39;8.60;99.90
14517;DHT22;7344;50.864;4.362;2023-12-14T04:10:10;8.50;99.90
14517;DHT22;7344;50.864;4.362;2023-12-14T04:12:39;8.50;99.90
14517;DHT22;7344;50.864;4.362;2023-12-14T04:15:06;8.50;99.90
14517;DHT22;7344;50.864;4.362;2023-12-14T04:17:32;8.50;99.90
14517;DHT22;7344;50.864;4.362;2023-12-14T04:19:59;8.40;99.90
14517;DHT22;7344;50.864;4.362;2023-12-14T04:22:24;8.40;99.90
14517;DHT22;7344;50.864;4.362;2023-12-14T04:24:50;8.50;99.90
14517;DHT22;7344;50.864;4.362;2023-12-14T04:27:16;8.40;99.90
14517;DHT22;7344;50.864;4.362;2023-12-14T04:29:42;8.40;99.90
14517;DHT22;7344;50.864;4.362;2023-12-14T04:32:08;8.30;99.90
14517;DHT22;7344;50.864;4.362;2023-12-14T04:34:33;8.40;99.90
14517;DHT22;7344;50.864;4.362;2023-12-14T04:36:59;8.40;99.90
14517;DHT22;7344;50.864;4.362;2023-12-14T04:39:25;8.40;99.90
14517;DHT22;7344;50.864;4.362;2023-12-14T04:41:51;8.20;99.90
14517;DHT22;7344;50.864;4.362;2023-12-14T04:44:18;8.20;99.90
14517;DHT22;7344;50.864;4.362;2023-12-14T04:46:43;8.20;99.90
14517;DHT22;7344;50.864;4.362;2023-12-14T04:49:09;8.30;99.90
14517;DHT22;7344;50.864;4.362;2023-12-14T04:51:34;8.20;99.90
14517;DHT22;7344;50.864;4.362;2023-12-14T04:54:00;8.20;99.90
14517;DHT22;7344;50.864;4.362;2023-12-14T04:56:25;8.20;99.90
14517;DHT22;7344;50.864;4.362;2023-12-14T04:58:51;8.20;99.90
14517;DHT22;7344;50.864;4.362;2023-12-14T05:01:17;8.10;99.90
14517;DHT22;7344;50.864;4.362;2023-12-14T05:03:43;8.20;99.90
14517;DHT22;7344;50.864;4.362;2023-12-14T05:06:09;8.20;99.90
14517;DHT22;7344;50.864;4.362;2023-12-14T05:08:34;8.10;99.90
14517;DHT22;7344;50.864;4.362;2023-12-14T05:11:01;8.20;99.90
14517;DHT22;7344;50.864;4.362;2023-12-14T05:13:26;8.10;99.90
14517;DHT22;7344;50.864;4.362;2023-12-14T05:15:52;8.10;99.90
14517;DHT22;7344;50.864;4.362;2023-12-14T05:18:18;8.00;99.90
14517;DHT22;7344;50.864;4.362;2023-12-14T05:20:43;8.00;99.90
14517;DHT22;7344;50.864;4.362;2023-12-14T05:23:11;8.10;99.90
14517;DHT22;7344;50.864;4.362;2023-12-14T05:25:36;8.00;99.90
14517;DHT22;7344;50.864;4.362;2023-12-14T05:28:02;8.00;99.90
14517;DHT22;7344;50.864;4.362;2023-12-14T05:30:28;8.10;99.90
14517;DHT22;7344;50.864;4.362;2023-12-14T05:32:54;8.10;99.90
14517;DHT22;7344;50.864;4.362;2023-12-14T05:35:19;8.10;99.90
14517;DHT22;7344;50.864;4.362;2023-12-14T05:37:45;8.20;99.90
14517;DHT22;7344;50.864;4.362;2023-12-14T05:40:11;8.10;99.90
14517;DHT22;7344;50.864;4.362;2023-12-14T05:42:36;8.10;99.90
14517;DHT22;7344;50.864;4.362;2023-12-14T05:45:03;8.00;99.90
14517;DHT22;7344;50.864;4.362;2023-12-14T05:47:29;7.90;99.90
14517;DHT22;7344;50.864;4.362;2023-12-14T05:49:55;8.00;99.90
14517;DHT22;7344;50.864;4.362;2023-12-14T05:52:21;7.90;99.90
14517;DHT22;7344;50.864;4.362;2023-12-14T05:54:46;8.00;99.90
14517;DHT22;7344;50.864;4.362;2023-12-14T05:57:12;8.10;99.90
14517;DHT22;7344;50.864;4.362;2023-12-14T05:59:39;8.00;99.90
14517;DHT22;7344;50.864;4.362;2023-12-14T06:02:04;8.00;99.90
14517;DHT22;7344;50.864;4.362;2023-12-14T06:04:32;8.10;99.90
14517;DHT22;7344;50.864;4.362;2023-12-14T06:06:58;8.10;99.90
14517;DHT22;7344;50.864;4.362;2023-12-14T06:09:24;8.00;99.90
14517;DHT22;7344;50.864;4.362;2023-12-14T06:11:56;8.00;99.90
14517;DHT22;7344;50.864;4.362;2023-12-14T06:14:22;8.10;99.90
14517;DHT22;7344;50.864;4.362;2023-12-14T06:16:48;8.10;99.90
14517;DHT22;7344;50.864;4.362;2023-12-14T06:19:13;8.00;99.90
14517;DHT22;7344;50.864;4.362;2023-12-14T06:21:39;8.00;99.90
14517;DHT22;7344;50.864;4.362;2023-12-14T06:24:05;7.90;99.90
14517;DHT22;7344;50.864;4.362;2023-12-14T06:26:31;7.90;99.90
14517;DHT22;7344;50.864;4.362;2023-12-14T06:28:56;8.00;99.90
14517;DHT22;7344;50.864;4.362;2023-12-14T06:31:22;8.00;99.90
14517;DHT22;7344;50.864;4.362;2023-12-14T06:33:48;8.00;99.90
14517;DHT22;7344;50.864;4.362;2023-12-14T06:36:17;8.00;99.90
14517;DHT22;7344;50.864;4.362;2023-12-14T06:38:43;8.00;99.90
14517;DHT22;7344;50.864;4.362;2023-12-14T06:41:18;8.00;99.90
14517;DHT22;7344;50.864;4.362;2023-12-14T06:43:44;7.90;99.90
14517;DHT22;7344;50.864;4.362;2023-12-14T06:46:09;7.90;99.90
14517;DHT22;7344;50.864;4.362;2023-12-14T06:48:35;7.90;99.90
14517;DHT22;7344;50.864;4.362;2023-12-14T06:51:00;8.00;99.90
14517;DHT22;7344;50.864;4.362;2023-12-14T06:53:26;8.00;99.90
14517;DHT22;7344;50.864;4.362;2023-12-14T06:55:51;8.00;99.90
14517;DHT22;7344;50.864;4.362;2023-12-14T06:58:17;8.00;99.90
14517;DHT22;7344;50.864;4.362;2023-12-14T07:00:43;8.10;99.90
14517;DHT22;7344;50.864;4.362;2023-12-14T07:03:08;8.10;99.90
14517;DHT22;7344;50.864;4.362;2023-12-14T07:05:34;8.20;99.90
14517;DHT22;7344;50.864;4.362;2023-12-14T07:08:00;8.20;99.90
14517;DHT22;7344;50.864;4.362;2023-12-14T07:10:26;8.10;99.90
14517;DHT22;7344;50.864;4.362;2023-12-14T07:12:51;8.10;99.90
14517;DHT22;7344;50.864;4.362;2023-12-14T07:15:17;7.90;99.90
14517;DHT22;7344;50.864;4.362;2023-12-14T07:17:43;7.80;99.90
14517;DHT22;7344;50.864;4.362;2023-12-14T07:20:10;7.70;99.90
14517;DHT22;7344;50.864;4.362;2023-12-14T07:22:35;7.60;99.90
14517;DHT22;7344;50.864;4.362;2023-12-14T07:25:01;7.50;99.90
14517;DHT22;7344;50.864;4.362;2023-12-14T07:27:26;7.40;99.90
14517;DHT22;7344;50.864;4.362;2023-12-14T07:29:54;7.30;99.90
14517;DHT22;7344;50.864;4.362;2023-12-14T07:32:19;7.30;99.90
14517;DHT22;7344;50.864;4.362;2023-12-14T07:34:45;7.30;99.90
14517;DHT22;7344;50.864;4.362;2023-12-14T07:37:10;7.20;99.90
14517;DHT22;7344;50.864;4.362;2023-12-14T07:39:37;7.30;99.90
14517;DHT22;7344;50.864;4.362;2023-12-14T07:42:02;7.30;99.90
14517;DHT22;7344;50.864;4.362;2023-12-14T07:44:28;7.40;99.90
14517;DHT22;7344;50.864;4.362;2023-12-14T07:47:04;7.50;99.90
14517;DHT22;7344;50.864;4.362;2023-12-14T07:49:30;7.60;99.90
14517;DHT22;7344;50.864;4.362;2023-12-14T07:51:55;7.70;99.90
14517;DHT22;7344;50.864;4.362;2023-12-14T07:54:22;7.70;99.90
14517;DHT22;7344;50.864;4.362;2023-12-14T07:56:47;7.70;99.90
14517;DHT22;7344;50.864;4.362;2023-12-14T07:59:13;7.80;99.90
14517;DHT22;7344;50.864;4.362;2023-12-14T08:01:38;7.70;99.90
14517;DHT22;7344;50.864;4.362;2023-12-14T08:04:04;7.80;99.90
14517;DHT22;7344;50.864;4.362;2023-12-14T08:06:30;7.90;99.90
14517;DHT22;7344;50.864;4.362;2023-12-14T08:08:56;7.90;99.90
14517;DHT22;7344;50.864;4.362;2023-12-14T08:11:23;8.00;99.90
14517;DHT22;7344;50.864;4.362;2023-12-14T08:13:49;8.10;99.90
14517;DHT22;7344;50.864;4.362;2023-12-14T08:16:14;8.10;99.90
14517;DHT22;7344;50.864;4.362;2023-12-14T08:18:42;8.30;99.90
14517;DHT22;7344;50.864;4.362;2023-12-14T08:21:10;8.40;99.90
14517;DHT22;7344;50.864;4.362;2023-12-14T08:23:35;8.50;99.90
14517;DHT22;7344;50.864;4.362;2023-12-14T08:26:01;8.60;99.90
14517;DHT22;7344;50.864;4.362;2023-12-14T08:28:28;8.70;99.90
14517;DHT22;7344;50.864;4.362;2023-12-14T08:30:53;8.80;99.90
14517;DHT22;7344;50.864;4.362;2023-12-14T08:33:19;9.10;99.90
14517;DHT22;7344;50.864;4.362;2023-12-14T08:35:44;9.50;99.90
14517;DHT22;7344;50.864;4.362;2023-12-14T08:38:10;9.90;99.90
14517;DHT22;7344;50.864;4.362;2023-12-14T08:40:37;10.10;99.90
14517;DHT22;7344;50.864;4.362;2023-12-14T08:43:02;10.20;99.90
14517;DHT22;7344;50.864;4.362;2023-12-14T08:45:29;10.20;99.90
14517;DHT22;7344;50.864;4.362;2023-12-14T08:47:54;10.30;99.90
14517;DHT22;7344;50.864;4.362;2023-12-14T08:50:20;10.80;99.90
14517;DHT22;7344;50.864;4.362;2023-12-14T08:52:46;11.30;99.90
14517;DHT22;7344;50.864;4.362;2023-12-14T08:55:12;12.20;99.90
14517;DHT22;7344;50.864;4.362;2023-12-14T08:57:38;13.00;99.90
14517;DHT22;7344;50.864;4.362;2023-12-14T09:00:06;13.70;99.90
14517;DHT22;7344;50.864;4.362;2023-12-14T09:02:32;14.10;99.90
14517;DHT22;7344;50.864;4.362;2023-12-14T09:04:58;14.60;99.90
14517;DHT22;7344;50.864;4.362;2023-12-14T09:07:24;14.80;99.90
14517;DHT22;7344;50.864;4.362;2023-12-14T09:09:49;14.80;99.90
14517;DHT22;7344;50.864;4.362;2023-12-14T09:12:15;14.60;99.90
14517;DHT22;7344;50.864;4.362;2023-12-14T09:14:40;13.90;99.90
14517;DHT22;7344;50.864;4.362;2023-12-14T09:17:06;13.80;99.90
14517;DHT22;7344;50.864;4.362;2023-12-14T09:19:32;13.10;99.90
14517;DHT22;7344;50.864;4.362;2023-12-14T09:21:58;12.60;99.90
14517;DHT22;7344;50.864;4.362;2023-12-14T09:24:23;11.80;99.90
14517;DHT22;7344;50.864;4.362;2023-12-14T09:26:49;11.50;99.90
14517;DHT22;7344;50.864;4.362;2023-12-14T09:29:14;11.20;99.90
14517;DHT22;7344;50.864;4.362;2023-12-14T09:31:44;10.90;99.90
14517;DHT22;7344;50.864;4.362;2023-12-14T09:34:10;10.80;99.90
14517;DHT22;7344;50.864;4.362;2023-12-14T09:36:36;10.70;99.90
14517;DHT22;7344;50.864;4.362;2023-12-14T09:39:02;10.50;99.90
14517;DHT22;7344;50.864;4.362;2023-12-14T09:41:28;10.30;99.90
14517;DHT22;7344;50.864;4.362;2023-12-14T09:43:54;10.10;99.90
14517;DHT22;7344;50.864;4.362;2023-12-14T09:46:21;10.00;99.90
14517;DHT22;7344;50.864;4.362;2023-12-14T09:48:47;9.80;99.90
14517;DHT22;7344;50.864;4.362;2023-12-14T09:51:13;9.90;99.90
14517;DHT22;7344;50.864;4.362;2023-12-14T09:53:39;9.90;99.90
14517;DHT22;7344;50.864;4.362;2023-12-14T09:56:05;10.00;99.90
14517;DHT22;7344;50.864;4.362;2023-12-14T09:58:34;9.90;99.90
14517;DHT22;7344;50.864;4.362;2023-12-14T10:01:00;9.80;99.90
14517;DHT22;7344;50.864;4.362;2023-12-14T10:03:30;9.60;99.90
14517;DHT22;7344;50.864;4.362;2023-12-14T10:05:58;9.50;99.90
14517;DHT22;7344;50.864;4.362;2023-12-14T10:08:25;9.40;99.90
14517;DHT22;7344;50.864;4.362;2023-12-14T10:10:52;9.50;99.90
14517;DHT22;7344;50.864;4.362;2023-12-14T10:13:36;9.40;99.90
14517;DHT22;7344;50.864;4.362;2023-12-14T10:16:02;9.50;99.90
14517;DHT22;7344;50.864;4.362;2023-12-14T10:18:28;9.50;99.90
14517;DHT22;7344;50.864;4.362;2023-12-14T10:20:54;9.60;99.90
14517;DHT22;7344;50.864;4.362;2023-12-14T10:23:21;9.60;99.90
14517;DHT22;7344;50.864;4.362;2023-12-14T10:25:47;9.70;99.90
14517;DHT22;7344;50.864;4.362;2023-12-14T10:28:15;9.90;99.90
14517;DHT22;7344;50.864;4.362;2023-12-14T10:30:42;9.80;99.90
14517;DHT22;7344;50.864;4.362;2023-12-14T10:33:08;9.60;99.90
14517;DHT22;7344;50.864;4.362;2023-12-14T10:35:34;9.60;99.90
14517;DHT22;7344;50.864;4.362;2023-12-14T10:38:03;9.40;99.90
14517;DHT22;7344;50.864;4.362;2023-12-14T10:40:30;9.50;99.90
14517;DHT22;7344;50.864;4.362;2023-12-14T10:42:58;9.50;99.90
14517;DHT22;7344;50.864;4.362;2023-12-14T10:45:28;9.50;99.90
14517;DHT22;7344;50.864;4.362;2023-12-14T10:47:55;9.60;99.90
14517;DHT22;7344;50.864;4.362;2023-12-14T10:50:22;9.60;99.90
14517;DHT22;7344;50.864;4.362;2023-12-14T10:52:49;9.60;99.90
14517;DHT22;7344;50.864;4.362;2023-12-14T10:55:37;9.60;99.90
14517;DHT22;7344;50.864;4.362;2023-12-14T10:58:05;9.70;99.90
14517;DHT22;7344;50.864;4.362;2023-12-14T11:00:31;9.80;99.90
14517;DHT22;7344;50.864;4.362;2023-12-14T11:02:57;10.00;99.90
14517;DHT22;7344;50.864;4.362;2023-12-14T11:05:27;10.10;99.90
14517;DHT22;7344;50.864;4.362;2023-12-14T11:07:56;10.20;99.90
14517;DHT22;7344;50.864;4.362;2023-12-14T11:10:43;10.20;99.90
14517;DHT22;7344;50.864;4.362;2023-12-14T11:13:13;10.40;99.90
14517;DHT22;7344;50.864;4.362;2023-12-14T11:15:48;10.30;99.90
14517;DHT22;7344;50.864;4.362;2023-12-14T11:18:24;10.20;99.90
14517;DHT22;7344;50.864;4.362;2023-12-14T11:20:54;10.30;99.90
14517;DHT22;7344;50.864;4.362;2023-12-14T11:25:52;10.20;99.90
14517;DHT22;7344;50.864;4.362;2023-12-14T11:28:19;10.20;99.90
14517;DHT22;7344;50.864;4.362;2023-12-14T11:30:45;10.20;99.90
14517;DHT22;7344;50.864;4.362;2023-12-14T11:33:15;10.20;99.90
14517;DHT22;7344;50.864;4.362;2023-12-14T11:35:41;10.20;99.90
14517;DHT22;7344;50.864;4.362;2023-12-14T11:38:07;10.20;99.90
14517;DHT22;7344;50.864;4.362;2023-12-14T11:40:42;10.10;99.90
14517;DHT22;7344;50.864;4.362;2023-12-14T11:43:07;10.00;99.90
14517;DHT22;7344;50.864;4.362;2023-12-14T11:45:38;10.00;99.90
14517;DHT22;7344;50.864;4.362;2023-12-14T11:48:08;9.90;99.90
14517;DHT22;7344;50.864;4.362;2023-12-14T11:50:42;9.90;99.90
14517;DHT22;7344;50.864;4.362;2023-12-14T11:53:08;10.00;99.90
14517;DHT22;7344;50.864;4.362;2023-12-14T11:55:38;9.70;99.90
14517;DHT22;7344;50.864;4.362;2023-12-14T11:58:05;9.50;99.90
14517;DHT22;7344;50.864;4.362;2023-12-14T12:00:32;9.30;99.90
14517;DHT22;7344;50.864;4.362;2023-12-14T12:03:13;9.30;99.90
14517;DHT22;7344;50.864;4.362;2023-12-14T12:05:41;9.20;99.90
14517;DHT22;7344;50.864;4.362;2023-12-14T12:08:08;9.30;99.90
14517;DHT22;7344;50.864;4.362;2023-12-14T12:10:34;9.30;99.90
14517;DHT22;7344;50.864;4.362;2023-12-14T12:13:05;9.40;99.90
14517;DHT22;7344;50.864;4.362;2023-12-14T12:15:32;9.40;99.90
14517;DHT22;7344;50.864;4.362;2023-12-14T12:18:07;9.50;99.90
14517;DHT22;7344;50.864;4.362;2023-12-14T12:20:33;9.50;99.90
14517;DHT22;7344;50.864;4.362;2023-12-14T12:23:00;9.10;99.90
14517;DHT22;7344;50.864;4.362;2023-12-14T12:25:26;9.20;99.90
14517;DHT22;7344;50.864;4.362;2023-12-14T12:27:54;9.30;99.90
14517;DHT22;7344;50.864;4.362;2023-12-14T12:30:20;9.30;99.90
14517;DHT22;7344;50.864;4.362;2023-12-14T12:32:46;9.40;99.90
14517;DHT22;7344;50.864;4.362;2023-12-14T12:35:12;9.40;99.90
14517;DHT22;7344;50.864;4.362;2023-12-14T12:37:39;9.30;99.90
14517;DHT22;7344;50.864;4.362;2023-12-14T12:40:05;9.30;99.90
14517;DHT22;7344;50.864;4.362;2023-12-14T12:42:31;9.40;99.90
14517;DHT22;7344;50.864;4.362;2023-12-14T12:44:56;9.30;99.90
14517;DHT22;7344;50.864;4.362;2023-12-14T12:47:22;9.10;99.90
14517;DHT22;7344;50.864;4.362;2023-12-14T12:49:48;9.20;99.90
14517;DHT22;7344;50.864;4.362;2023-12-14T12:52:13;9.00;99.90
14517;DHT22;7344;50.864;4.362;2023-12-14T12:54:39;9.10;99.90
14517;DHT22;7344;50.864;4.362;2023-12-14T12:57:05;9.10;99.90
14517;DHT22;7344;50.864;4.362;2023-12-14T12:59:30;9.10;99.90
14517;DHT22;7344;50.864;4.362;2023-12-14T13:01:56;9.10;99.90
14517;DHT22;7344;50.864;4.362;2023-12-14T13:04:22;9.10;99.90
14517;DHT22;7344;50.864;4.362;2023-12-14T13:06:49;9.30;99.90
14517;DHT22;7344;50.864;4.362;2023-12-14T13:09:16;9.20;99.90
14517;DHT22;7344;50.864;4.362;2023-12-14T13:11:43;9.20;99.90
14517;DHT22;7344;50.864;4.362;2023-12-14T13:14:08;9.20;99.90
14517;DHT22;7344;50.864;4.362;2023-12-14T13:16:35;9.20;99.90
14517;DHT22;7344;50.864;4.362;2023-12-14T13:19:01;9.10;99.90
14517;DHT22;7344;50.864;4.362;2023-12-14T13:21:26;9.30;99.90
14517;DHT22;7344;50.864;4.362;2023-12-14T13:23:53;9.30;99.90
14517;DHT22;7344;50.864;4.362;2023-12-14T13:26:18;9.30;99.90
14517;DHT22;7344;50.864;4.362;2023-12-14T13:28:44;9.30;99.90
14517;DHT22;7344;50.864;4.362;2023-12-14T13:31:10;9.20;99.90
14517;DHT22;7344;50.864;4.362;2023-12-14T13:33:35;9.30;99.90
14517;DHT22;7344;50.864;4.362;2023-12-14T13:36:01;9.40;99.90
14517;DHT22;7344;50.864;4.362;2023-12-14T13:38:26;9.40;99.90
14517;DHT22;7344;50.864;4.362;2023-12-14T13:40:52;9.30;99.90
14517;DHT22;7344;50.864;4.362;2023-12-14T13:43:18;9.20;99.90
14517;DHT22;7344;50.864;4.362;2023-12-14T13:45:44;9.30;99.90
14517;DHT22;7344;50.864;4.362;2023-12-14T13:48:10;9.40;99.90
14517;DHT22;7344;50.864;4.362;2023-12-14T13:50:35;9.30;99.90
14517;DHT22;7344;50.864;4.362;2023-12-14T13:53:01;9.30;99.90
14517;DHT22;7344;50.864;4.362;2023-12-14T13:55:30;9.30;99.90
14517;DHT22;7344;50.864;4.362;2023-12-14T13:57:55;9.40;99.90
14517;DHT22;7344;50.864;4.362;2023-12-14T14:00:23;9.40;99.90
14517;DHT22;7344;50.864;4.362;2023-12-14T14:02:49;9.40;99.90
14517;DHT22;7344;50.864;4.362;2023-12-14T14:05:15;9.50;99.90
14517;DHT22;7344;50.864;4.362;2023-12-14T14:07:40;9.50;99.90
14517;DHT22;7344;50.864;4.362;2023-12-14T14:10:06;9.60;99.90
14517;DHT22;7344;50.864;4.362;2023-12-14T14:12:32;9.50;99.90
14517;DHT22;7344;50.864;4.362;2023-12-14T14:14:58;9.50;99.90
14517;DHT22;7344;50.864;4.362;2023-12-14T14:17:23;9.50;99.90
14517;DHT22;7344;50.864;4.362;2023-12-14T14:19:49;9.40;99.90
14517;DHT22;7344;50.864;4.362;2023-12-14T14:22:14;9.50;99.90
14517;DHT22;7344;50.864;4.362;2023-12-14T14:24:40;9.50;99.90
14517;DHT22;7344;50.864;4.362;2023-12-14T14:27:05;9.40;99.90
14517;DHT22;7344;50.864;4.362;2023-12-14T14:29:31;9.40;99.90
14517;DHT22;7344;50.864;4.362;2023-12-14T14:31:56;9.50;99.90
14517;DHT22;7344;50.864;4.362;2023-12-14T14:34:22;9.40;99.90
14517;DHT22;7344;50.864;4.362;2023-12-14T14:36:47;9.60;99.90
14517;DHT22;7344;50.864;4.362;2023-12-14T14:39:13;9.70;99.90
14517;DHT22;7344;50.864;4.362;2023-12-14T14:41:38;9.60;99.90
14517;DHT22;7344;50.864;4.362;2023-12-14T14:44:04;9.50;99.90
14517;DHT22;7344;50.864;4.362;2023-12-14T14:46:30;9.60;99.90
14517;DHT22;7344;50.864;4.362;2023-12-14T14:48:55;9.40;99.90
14517;DHT22;7344;50.864;4.362;2023-12-14T14:51:21;9.30;99.90
14517;DHT22;7344;50.864;4.362;2023-12-14T14:53:46;9.30;99.90
14517;DHT22;7344;50.864;4.362;2023-12-14T14:56:13;9.30;99.90
14517;DHT22;7344;50.864;4.362;2023-12-14T14:58:38;9.10;99.90
14517;DHT22;7344;50.864;4.362;2023-12-14T15:01:04;9.20;99.90
14517;DHT22;7344;50.864;4.362;2023-12-14T15:03:30;9.20;99.90
14517;DHT22;7344;50.864;4.362;2023-12-14T15:05:55;9.30;99.90
14517;DHT22;7344;50.864;4.362;2023-12-14T15:08:21;9.30;99.90
14517;DHT22;7344;50.864;4.362;2023-12-14T15:10:46;9.40;99.90
14517;DHT22;7344;50.864;4.362;2023-12-14T15:13:12;9.30;99.90
14517;DHT22;7344;50.864;4.362;2023-12-14T15:15:37;9.30;99.90
14517;DHT22;7344;50.864;4.362;2023-12-14T15:18:03;9.30;99.90
14517;DHT22;7344;50.864;4.362;2023-12-14T15:20:29;9.30;99.90
14517;DHT22;7344;50.864;4.362;2023-12-14T15:22:54;9.20;99.90
14517;DHT22;7344;50.864;4.362;2023-12-14T15:25:20;9.20;99.90
14517;DHT22;7344;50.864;4.362;2023-12-14T15:27:46;9.20;99.90
14517;DHT22;7344;50.864;4.362;2023-12-14T15:30:12;9.10;99.90
14517;DHT22;7344;50.864;4.362;2023-12-14T15:32:37;9.10;99.90
14517;DHT22;7344;50.864;4.362;2023-12-14T15:35:03;9.20;99.90
14517;DHT22;7344;50.864;4.362;2023-12-14T15:37:29;9.30;99.90
14517;DHT22;7344;50.864;4.362;2023-12-14T15:39:54;9.20;99.90
14517;DHT22;7344;50.864;4.362;2023-12-14T15:42:20;9.20;99.90
14517;DHT22;7344;50.864;4.362;2023-12-14T15:44:46;9.20;99.90
14517;DHT22;7344;50.864;4.362;2023-12-14T15:47:12;9.30;99.90
14517;DHT22;7344;50.864;4.362;2023-12-14T15:49:38;9.20;99.90
14517;DHT22;7344;50.864;4.362;2023-12-14T15:52:06;9.20;99.90
14517;DHT22;7344;50.864;4.362;2023-12-14T15:54:32;9.20;99.90